createdAt,value
2018-04-13T05:04:12.595Z,30.43
2018-04-13T05:06:38.549Z,31.33
2018-04-13T05:09:05.599Z,31.80
2018-04-13T05:11:31.665Z,31.20
2018-04-13T05:13:57.744Z,31.53
2018-04-13T05:16:23.887Z,30.93
2018-04-13T05:18:50.649Z,31.67
2018-04-13T05:21:16.730Z,32.00
2018-04-13T05:23:43.512Z,31.83
2018-04-13T05:26:09.502Z,30.60
2018-04-13T05:28:36.239Z,28.57
2018-04-13T05:31:03.054Z,29.57
2018-04-13T05:33:29.063Z,30.23
2018-04-13T05:35:55.107Z,29.23
2018-04-13T05:38:21.857Z,29.13
2018-04-13T05:40:47.973Z,26.97
2018-04-13T05:43:16.697Z,27.80
2018-04-13T05:45:43.359Z,28.73
2018-04-13T05:48:09.355Z,26.53
2018-04-13T05:50:35.423Z,26.13
2018-04-13T05:53:01.530Z,25.60
2018-04-13T05:55:27.560Z,26.67
2018-04-13T05:57:53.657Z,26.17
2018-04-13T06:00:19.697Z,25.70
2018-04-13T06:02:45.838Z,25.47
2018-04-13T06:05:12.560Z,27.50
2018-04-13T06:07:38.695Z,26.50
2018-04-13T06:10:04.853Z,27.23
2018-04-13T06:12:30.872Z,26.23
2018-04-13T06:14:56.906Z,22.97
2018-04-13T06:17:22.952Z,22.60
2018-04-13T06:19:48.986Z,21.90
2018-04-13T06:22:15.850Z,20.87
2018-04-13T06:24:41.871Z,19.87
2018-04-13T06:27:07.989Z,21.13
2018-04-13T06:29:34.816Z,19.80
2018-04-13T06:32:00.837Z,20.17
2018-04-13T06:34:27.583Z,22.07
2018-04-13T06:36:55.123Z,23.27
2018-04-13T06:39:21.239Z,25.80
2018-04-13T06:41:47.235Z,25.87
2018-04-13T06:44:14.095Z,27.23
2018-04-13T06:46:40.108Z,26.93
2018-04-13T06:49:06.238Z,28.70
2018-04-13T06:51:33.005Z,27.47
2018-04-13T06:53:59.052Z,28.30
2018-04-13T06:56:25.054Z,30.30
2018-04-13T06:58:51.843Z,34.63
2018-04-13T07:01:17.951Z,34.40
2018-04-13T07:03:43.993Z,36.23
2018-04-13T07:06:10.168Z,37.30
2018-04-13T07:08:36.192Z,36.70
2018-04-13T07:11:02.283Z,36.63
2018-04-13T07:13:29.160Z,36.60
2018-04-13T07:15:56.308Z,36.20
2018-04-13T07:18:26.009Z,36.30
2018-04-13T07:20:52.092Z,33.93
2018-04-13T07:23:19.499Z,33.53
2018-04-13T07:25:45.516Z,35.87
2018-04-13T07:28:11.555Z,34.10
2018-04-13T07:30:37.669Z,33.70
2018-04-13T07:33:03.693Z,34.30
2018-04-13T07:35:29.675Z,33.67
2018-04-13T07:37:56.437Z,33.77
2018-04-13T07:40:23.495Z,34.93
2018-04-13T07:42:49.638Z,34.83
2018-04-13T07:45:16.327Z,32.40
2018-04-13T07:47:42.321Z,34.83
2018-04-13T07:50:08.436Z,32.90
2018-04-13T07:52:35.253Z,34.70
2018-04-13T07:55:02.542Z,34.43
2018-04-13T07:57:29.294Z,32.20
2018-04-13T07:59:55.381Z,33.40
2018-04-13T08:02:21.383Z,34.83
2018-04-13T08:04:48.118Z,33.63
2018-04-13T08:07:14.896Z,34.10
2018-04-13T08:09:40.949Z,33.13
2018-04-13T08:12:06.949Z,34.67
2018-04-13T08:14:32.932Z,33.10
2018-04-13T08:16:58.927Z,33.10
2018-04-13T08:19:24.994Z,30.27
2018-04-13T08:21:50.993Z,30.07
2018-04-13T08:24:16.990Z,29.77
2018-04-13T08:26:43.736Z,28.00
2018-04-13T08:29:10.506Z,27.00
2018-04-13T08:31:36.553Z,26.97
2018-04-13T08:34:02.582Z,26.93
2018-04-13T08:36:28.521Z,23.97
2018-04-13T08:38:55.314Z,23.43
2018-04-13T08:41:21.343Z,22.80
2018-04-13T08:43:47.344Z,21.17
2018-04-13T08:51:34.528Z,18.53
2018-04-13T08:54:00.499Z,18.87
2018-04-13T09:11:13.628Z,14.23
2018-04-13T09:14:01.337Z,14.60
2018-04-13T09:19:21.326Z,10.60
2018-04-13T09:21:48.114Z,11.03
2018-04-13T09:24:14.197Z,13.48
2018-04-13T09:26:40.284Z,11.57
2018-04-13T09:29:13.050Z,11.40
2018-04-13T09:34:32.110Z,10.37
2018-04-13T09:36:58.162Z,11.37
2018-04-13T09:39:24.253Z,11.57
2018-04-13T09:42:11.064Z,11.60
2018-04-13T09:47:50.239Z,10.73
2018-04-13T09:56:15.547Z,10.33
2018-04-13T10:01:40.559Z,10.30
2018-04-13T10:04:12.623Z,9.67
2018-04-13T10:09:32.790Z,9.10
2018-04-13T10:11:58.847Z,9.20
2018-04-13T10:14:24.926Z,8.33
2018-04-13T10:19:43.483Z,9.10
2018-04-13T10:25:02.768Z,8.53
2018-04-13T10:27:49.029Z,9.20
2018-04-13T10:38:55.052Z,9.67
2018-04-13T10:41:28.075Z,10.10
2018-04-13T10:43:54.204Z,10.80
2018-04-13T10:46:20.297Z,10.63
2018-04-13T10:48:46.352Z,9.93
2018-04-13T10:59:51.632Z,10.40
2018-04-13T11:08:05.016Z,12.27
2018-04-13T11:10:52.948Z,12.10
2018-04-13T11:13:19.672Z,13.53
2018-04-13T11:19:00.900Z,15.20
2018-04-13T11:21:27.265Z,14.80
2018-04-13T11:23:53.339Z,15.07
2018-04-13T11:26:19.375Z,15.00
2018-04-13T11:28:59.288Z,16.20
2018-04-13T11:31:25.348Z,16.67
2018-04-13T11:36:47.987Z,17.33
2018-04-13T11:39:18.106Z,18.47
2018-04-13T11:41:44.951Z,19.20
2018-04-13T11:55:47.796Z,22.90
2018-04-13T12:01:07.145Z,22.40
2018-04-13T12:03:33.213Z,23.47
2018-04-13T12:06:06.648Z,22.57
2018-04-13T12:08:32.687Z,21.50
2018-04-13T12:10:58.733Z,21.70
2018-04-13T12:19:31.514Z,21.37
2018-04-13T12:24:50.497Z,22.17
2018-04-13T12:41:42.436Z,24.23
2018-04-13T12:44:08.509Z,24.83
2018-04-13T12:49:28.688Z,25.10
2018-04-13T12:52:03.243Z,26.17
2018-04-13T12:54:30.136Z,29.47
2018-04-13T12:59:49.019Z,30.50
2018-04-13T13:08:00.868Z,32.23
2018-04-13T13:13:19.970Z,34.70
2018-04-13T13:18:59.544Z,34.67
2018-04-13T13:21:25.632Z,33.60
2018-04-13T13:29:37.971Z,33.37
2018-04-13T13:37:51.811Z,29.67
2018-04-13T14:29:56.983Z,25.90
2018-04-13T15:00:44.952Z,28.93
2018-04-13T15:03:11.736Z,29.37
2018-04-13T15:05:37.746Z,27.47
2018-04-13T15:08:03.800Z,26.97
2018-04-13T15:10:30.370Z,26.00
2018-04-13T15:12:57.157Z,26.73
2018-04-13T15:15:23.743Z,25.80
2018-04-13T15:17:49.780Z,23.37
2018-04-13T15:27:01.006Z,16.03
2018-04-13T15:29:27.175Z,16.30
2018-04-13T15:31:53.971Z,17.83
2018-04-13T15:34:20.091Z,16.47
2018-04-13T15:36:46.120Z,16.37
2018-04-13T15:39:12.186Z,16.90
2018-04-13T15:41:39.021Z,18.30
2018-04-13T15:44:05.825Z,18.27
2018-04-13T15:46:31.986Z,17.83
2018-04-13T15:48:58.740Z,18.40
2018-04-13T15:51:24.799Z,17.83
2018-04-13T15:53:50.815Z,17.60
2018-04-13T15:56:16.879Z,18.80
2018-04-13T15:58:43.669Z,18.67
2018-04-13T16:01:09.699Z,21.63
2018-04-13T16:03:39.446Z,24.53
2018-04-13T16:06:06.250Z,23.50
2018-04-13T16:08:32.313Z,25.47
2018-04-13T16:10:58.429Z,22.17
2018-04-13T16:13:25.207Z,22.33
2018-04-13T16:15:51.284Z,23.87
2018-04-13T16:18:18.092Z,24.07
2018-04-13T16:20:44.180Z,21.93
2018-04-13T16:23:10.202Z,22.53
2018-04-13T16:25:36.191Z,22.53
2018-04-13T16:28:02.913Z,22.20
2018-04-13T16:30:29.752Z,22.10
2018-04-13T16:32:56.516Z,21.83
2018-04-13T16:35:22.539Z,21.40
2018-04-13T16:37:48.729Z,24.90
2018-04-13T16:40:14.838Z,24.33
2018-04-13T16:42:40.855Z,23.87
2018-04-13T16:45:07.083Z,21.97
2018-04-13T16:47:33.827Z,23.03
2018-04-13T16:50:00.627Z,22.27
2018-04-13T16:52:27.351Z,21.90
2018-04-13T16:54:53.395Z,22.63
2018-04-13T16:57:21.327Z,25.13
2018-04-13T16:59:47.369Z,23.63
2018-04-13T17:02:13.361Z,24.60
2018-04-13T17:04:39.435Z,23.53
2018-04-13T17:07:05.462Z,23.27
2018-04-13T17:09:31.477Z,23.07
2018-04-13T17:11:57.496Z,23.03
2018-04-13T17:14:23.530Z,23.53
2018-04-13T17:16:50.347Z,22.63
2018-04-13T17:19:16.341Z,24.33
2018-04-13T17:21:42.388Z,23.33
2018-04-13T17:24:09.724Z,33.47
2018-04-13T17:26:35.783Z,26.73
2018-04-13T17:29:02.607Z,26.90
2018-04-13T17:31:28.631Z,24.23
2018-04-13T17:33:55.414Z,24.50
2018-04-13T17:36:21.409Z,23.50
2018-04-13T17:38:47.418Z,23.37
2018-04-13T17:41:14.224Z,23.13
2018-04-13T17:43:40.334Z,21.73
2018-04-13T17:46:06.421Z,21.97
2018-04-13T17:48:32.469Z,21.80
2018-04-13T17:50:58.536Z,22.53
2018-04-13T17:53:25.499Z,22.03
2018-04-13T17:55:51.589Z,23.10
2018-04-13T17:58:18.404Z,22.83
2018-04-13T18:00:44.561Z,21.77
2018-04-13T18:03:11.340Z,22.70
2018-04-13T18:05:38.402Z,22.57
2018-04-13T18:08:04.461Z,21.83
2018-04-13T18:10:31.302Z,21.87
2018-04-13T18:12:58.138Z,20.30
2018-04-13T18:15:26.269Z,20.40
2018-04-13T18:17:52.344Z,21.13
2018-04-13T18:20:19.143Z,20.33
2018-04-13T18:22:45.128Z,22.87
2018-04-13T18:25:13.943Z,21.33
2018-04-13T18:27:39.990Z,20.30
2018-04-13T18:30:08.801Z,21.90
2018-04-13T18:32:34.912Z,21.57
2018-04-13T18:35:01.758Z,20.03
2018-04-13T18:37:27.859Z,21.23
2018-04-13T18:39:54.678Z,21.23
2018-04-13T18:42:20.856Z,21.57
2018-04-13T18:44:46.896Z,20.37
2018-04-13T18:47:13.055Z,21.07
2018-04-13T18:49:39.185Z,21.37
2018-04-13T18:52:07.370Z,20.80
2018-04-13T18:54:33.404Z,20.10
2018-04-13T18:56:59.485Z,20.97
2018-04-13T18:59:26.545Z,22.07
2018-04-13T19:01:53.344Z,21.90
2018-04-13T19:04:19.399Z,22.07
2018-04-13T19:06:46.675Z,21.20
2018-04-13T19:09:12.740Z,22.70
2018-04-13T19:11:39.036Z,22.50
2018-04-13T19:14:05.828Z,21.73
2018-04-13T19:16:35.517Z,22.60
2018-04-13T19:19:03.410Z,23.20
2018-04-13T19:21:30.200Z,22.87
2018-04-13T19:23:56.246Z,23.37
2018-04-13T19:26:22.319Z,22.73
2018-04-13T19:28:48.299Z,25.00
2018-04-13T19:31:15.117Z,24.13
2018-04-13T19:33:41.130Z,22.27
2018-04-13T19:36:07.116Z,23.13
2018-04-13T19:38:34.875Z,23.90
2018-04-13T19:41:01.155Z,23.90
2018-04-13T19:43:28.131Z,22.50
2018-04-13T19:45:56.019Z,24.30
2018-04-13T19:48:22.036Z,24.60
2018-04-13T19:50:48.099Z,23.43
2018-04-13T19:53:14.185Z,23.10
2018-04-13T19:55:40.228Z,23.30
2018-04-13T19:58:06.875Z,23.70
2018-04-13T20:00:32.915Z,24.30
2018-04-13T20:03:00.376Z,23.20
2018-04-13T20:05:26.378Z,24.33
2018-04-13T20:07:53.108Z,24.13
2018-04-13T20:10:20.644Z,24.60
2018-04-13T20:12:46.639Z,24.07
2018-04-13T20:15:25.480Z,24.50
2018-04-13T20:17:51.495Z,24.57
2018-04-13T20:20:20.632Z,24.40
2018-04-13T20:22:48.063Z,25.27
2018-04-13T20:25:14.059Z,26.03
2018-04-13T20:27:40.058Z,23.80
2018-04-13T20:30:06.125Z,24.67
2018-04-13T20:32:33.589Z,24.83
2018-04-13T20:35:00.315Z,24.43
2018-04-13T20:37:27.290Z,23.43
2018-04-13T20:39:53.353Z,23.37
2018-04-13T20:42:20.366Z,23.17
2018-04-13T20:44:46.340Z,23.33
2018-04-13T20:47:12.969Z,24.23
2018-04-13T20:49:39.055Z,23.37
2018-04-13T20:52:05.090Z,22.47
2018-04-13T20:54:31.346Z,23.27
2018-04-13T20:56:58.129Z,22.13
2018-04-13T20:59:24.414Z,22.47
2018-04-13T21:01:51.212Z,24.07
2018-04-13T21:04:17.282Z,21.27
2018-04-13T21:06:43.424Z,23.00
2018-04-13T21:09:09.509Z,21.80
2018-04-13T21:11:36.321Z,21.83
2018-04-13T21:14:02.329Z,23.20
2018-04-13T21:16:28.339Z,22.80
2018-04-13T21:18:54.385Z,23.40
2018-04-13T21:21:20.400Z,23.67
2018-04-13T21:23:57.097Z,23.73
2018-04-13T21:26:23.843Z,23.07
2018-04-13T21:28:50.628Z,22.40
2018-04-13T21:34:18.710Z,24.93
2018-04-13T21:36:57.723Z,23.37
2018-04-13T21:39:38.763Z,24.67
2018-04-13T21:42:13.466Z,24.40
2018-04-13T21:44:58.213Z,23.93
2018-04-13T21:47:27.591Z,25.17
2018-04-13T21:50:07.479Z,24.63
2018-04-13T21:52:34.225Z,24.70
2018-04-13T21:55:00.950Z,24.70
2018-04-13T21:57:27.680Z,24.70
2018-04-13T21:59:53.714Z,25.00
2018-04-13T22:02:20.274Z,24.60
2018-04-13T22:04:46.249Z,25.67
2018-04-13T22:07:12.989Z,25.40
2018-04-13T22:09:39.072Z,25.03
2018-04-13T22:12:05.053Z,25.03
2018-04-13T22:14:43.443Z,25.57
2018-04-13T22:17:10.204Z,25.60
2018-04-13T22:19:36.156Z,26.20
2018-04-13T22:22:02.129Z,25.23
2018-04-13T22:24:28.842Z,25.00
2018-04-13T22:26:55.698Z,25.07
2018-04-13T22:29:23.505Z,26.37
2018-04-13T22:31:49.506Z,26.83
2018-04-13T22:34:16.037Z,26.53
2018-04-13T22:36:42.025Z,25.57
2018-04-13T22:39:08.757Z,25.30
2018-04-13T22:41:35.516Z,25.53
2018-04-13T22:44:01.498Z,24.10
2018-04-13T22:46:27.492Z,25.23
2018-04-13T22:48:53.500Z,24.87
2018-04-13T22:51:19.526Z,25.10
2018-04-13T22:53:45.526Z,25.90
2018-04-13T22:56:11.519Z,25.33
2018-04-13T22:58:38.231Z,27.40
2018-04-13T23:01:04.363Z,27.70
2018-04-13T23:03:31.142Z,27.93
2018-04-13T23:05:57.146Z,28.43
2018-04-13T23:08:23.137Z,27.03
2018-04-13T23:10:49.349Z,27.67
2018-04-13T23:13:15.347Z,28.13
2018-04-13T23:15:41.334Z,27.50
2018-04-13T23:18:08.027Z,29.30
2018-04-13T23:20:34.173Z,28.47
2018-04-13T23:23:00.156Z,29.23
2018-04-13T23:25:26.116Z,30.00
2018-04-13T23:27:52.803Z,28.33
2018-04-13T23:30:18.799Z,28.90
2018-04-13T23:32:44.799Z,28.67
2018-04-13T23:35:10.781Z,27.57
2018-04-13T23:40:12.341Z,29.13
2018-04-13T23:42:38.354Z,28.10
2018-04-13T23:45:04.312Z,28.37
2018-04-13T23:47:31.043Z,27.37
2018-04-13T23:49:57.225Z,28.37
2018-04-13T23:52:23.240Z,28.37
2018-04-13T23:54:49.258Z,29.03
2018-04-13T23:57:15.378Z,28.97
2018-04-13T23:59:41.379Z,26.97
